createdAt,value
2019-05-01T00:02:25.502Z,100.00
2019-05-01T00:05:14.120Z,100.00
2019-05-01T00:07:42.780Z,100.00
2019-05-01T00:10:11.489Z,100.00
2019-05-01T00:12:40.486Z,100.00
2019-05-01T00:15:10.103Z,100.00
2019-05-01T00:17:38.810Z,100.00
2019-05-01T00:20:07.450Z,100.00
2019-05-01T00:22:36.105Z,100.00
2019-05-01T00:25:04.903Z,100.00
2019-05-01T00:27:33.603Z,100.00
2019-05-01T00:30:02.259Z,100.00
2019-05-01T00:32:31.359Z,100.00
2019-05-01T00:35:00.090Z,100.00
2019-05-01T00:37:28.729Z,100.00
2019-05-01T00:39:57.371Z,100.00
2019-05-01T00:42:26.899Z,100.00
2019-05-01T00:44:55.626Z,100.00
2019-05-01T00:47:25.236Z,100.00
2019-05-01T00:49:53.870Z,100.00
2019-05-01T00:52:22.594Z,100.00
2019-05-01T00:54:52.938Z,100.00
2019-05-01T00:57:49.762Z,100.00
2019-05-01T01:01:02.054Z,100.00
2019-05-01T01:03:30.771Z,100.00
2019-05-01T01:05:59.419Z,100.00
2019-05-01T01:08:28.066Z,100.00
2019-05-01T01:10:57.028Z,100.00
2019-05-01T01:13:25.728Z,100.00
2019-05-01T01:15:54.373Z,100.00
2019-05-01T01:18:23.179Z,100.00
2019-05-01T01:20:51.824Z,100.00
2019-05-01T01:23:20.880Z,100.00
2019-05-01T01:25:49.524Z,100.00
2019-05-01T01:28:18.623Z,100.00
2019-05-01T01:30:56.136Z,100.00
2019-05-01T01:33:17.693Z,100.00
2019-05-01T01:35:46.683Z,100.00
2019-05-01T01:38:15.319Z,100.00
2019-05-01T01:40:43.963Z,100.00
2019-05-01T01:43:30.496Z,100.00
2019-05-01T01:45:59.955Z,100.00
2019-05-01T01:48:28.591Z,100.00
2019-05-01T01:50:57.223Z,100.00
2019-05-01T01:53:25.875Z,100.00
2019-05-01T01:55:54.500Z,100.00
2019-05-01T01:58:23.142Z,100.00
2019-05-01T02:01:17.264Z,100.00
2019-05-01T02:03:49.381Z,100.00
2019-05-01T02:06:18.103Z,100.00
2019-05-01T02:08:56.398Z,100.00
2019-05-01T02:11:17.148Z,100.00
2019-05-01T02:13:45.787Z,100.00
2019-05-01T02:16:14.490Z,100.00
2019-05-01T02:18:43.168Z,100.00
2019-05-01T02:21:11.800Z,100.00
2019-05-01T02:23:40.448Z,100.00
2019-05-01T02:26:10.695Z,100.00
2019-05-01T02:28:57.808Z,100.00
2019-05-01T02:31:32.825Z,100.00
2019-05-01T02:34:01.537Z,100.00
2019-05-01T02:36:30.191Z,100.00
2019-05-01T02:38:58.921Z,100.00
2019-05-01T02:41:29.570Z,100.00
2019-05-01T02:44:00.587Z,100.00
2019-05-01T02:46:29.512Z,100.00
2019-05-01T02:49:02.277Z,100.00
2019-05-01T02:51:30.915Z,100.00
2019-05-01T02:53:59.558Z,100.00
2019-05-01T02:56:59.020Z,100.00
2019-05-01T02:59:28.238Z,100.00
2019-05-01T03:01:58.184Z,100.00
2019-05-01T03:04:26.852Z,100.00
2019-05-01T03:06:55.491Z,100.00
2019-05-01T03:09:24.143Z,100.00
2019-05-01T03:11:53.142Z,100.00
2019-05-01T03:14:21.773Z,100.00
2019-05-01T03:16:50.493Z,100.00
2019-05-01T03:19:26.010Z,100.00
2019-05-01T03:22:03.651Z,100.00
2019-05-01T03:24:32.303Z,100.00
2019-05-01T03:27:00.932Z,100.00
2019-05-01T03:29:29.592Z,100.00
2019-05-01T03:32:15.404Z,100.00
2019-05-01T03:34:28.584Z,100.00
2019-05-01T03:36:57.317Z,100.00
2019-05-01T03:39:25.959Z,100.00
2019-05-01T03:41:54.588Z,100.00
2019-05-01T03:44:23.258Z,100.00
2019-05-01T03:46:51.879Z,100.00
2019-05-01T03:49:20.514Z,100.00
2019-05-01T03:51:49.958Z,100.00
2019-05-01T03:54:18.659Z,100.00
2019-05-01T03:56:47.292Z,100.00
2019-05-01T03:59:15.947Z,100.00
2019-05-01T04:01:57.426Z,100.00
2019-05-01T04:04:28.152Z,100.00
2019-05-01T04:06:56.803Z,100.00
2019-05-01T04:09:25.442Z,100.00
2019-05-01T04:11:54.268Z,100.00
2019-05-01T04:14:22.927Z,100.00
2019-05-01T04:16:57.017Z,100.00
2019-05-01T04:19:25.648Z,100.00
2019-05-01T04:21:59.923Z,100.00
2019-05-01T04:24:28.678Z,100.00
2019-05-01T04:26:57.804Z,100.00
2019-05-01T04:29:35.847Z,100.00
2019-05-01T04:32:15.870Z,100.00
2019-05-01T04:35:12.643Z,100.00
2019-05-01T04:37:41.310Z,100.00
2019-05-01T04:40:10.298Z,100.00
2019-05-01T04:42:39.131Z,100.00
2019-05-01T04:45:07.878Z,100.00
2019-05-01T04:47:36.684Z,100.00
2019-05-01T04:50:05.415Z,100.00
2019-05-01T04:52:34.441Z,100.00
2019-05-01T04:55:03.140Z,100.00
2019-05-01T04:57:32.855Z,100.00
2019-05-01T05:00:01.508Z,100.00
2019-05-01T05:02:37.871Z,100.00
2019-05-01T05:05:06.695Z,100.00
2019-05-01T05:07:35.594Z,100.00
2019-05-01T05:10:04.419Z,100.00
2019-05-01T05:13:07.293Z,100.00
2019-05-01T05:15:45.366Z,100.00
2019-05-01T05:18:14.182Z,100.00
2019-05-01T05:20:42.814Z,100.00
2019-05-01T05:23:11.595Z,100.00
2019-05-01T05:25:41.422Z,100.00
2019-05-01T05:28:10.330Z,100.00
2019-05-01T05:30:38.978Z,100.00
2019-05-01T05:33:17.756Z,100.00
2019-05-01T05:35:38.229Z,100.00
2019-05-01T05:38:26.422Z,100.00
2019-05-01T05:40:55.074Z,100.00
2019-05-01T05:43:23.714Z,100.00
2019-05-01T05:45:52.356Z,100.00
2019-05-01T05:48:21.010Z,100.00
2019-05-01T05:50:58.976Z,100.00
2019-05-01T05:53:28.608Z,100.00
2019-05-01T05:55:57.852Z,100.00
2019-05-01T05:58:30.836Z,100.00
2019-05-01T06:01:21.787Z,100.00
2019-05-01T06:04:16.427Z,100.00
2019-05-01T06:07:16.284Z,100.00
2019-05-01T06:09:54.919Z,100.00
2019-05-01T06:12:30.790Z,100.00
2019-05-01T06:15:13.221Z,100.00
2019-05-01T06:17:46.707Z,100.00
2019-05-01T06:20:26.093Z,100.00
2019-05-01T06:23:24.337Z,100.00
2019-05-01T06:26:00.229Z,100.00
2019-05-01T06:28:26.323Z,100.00
2019-05-01T06:30:58.036Z,100.00
2019-05-01T06:33:26.738Z,100.00
2019-05-01T06:35:56.448Z,100.00
2019-05-01T06:38:25.173Z,100.00
2019-05-01T06:40:58.114Z,100.00
2019-05-01T06:44:02.222Z,100.00
2019-05-01T06:46:51.514Z,100.00
2019-05-01T06:49:51.270Z,100.00
2019-05-01T06:52:24.888Z,100.00
2019-05-01T06:54:53.606Z,100.00
2019-05-01T06:57:22.493Z,100.00
2019-05-01T06:59:51.212Z,100.00
2019-05-01T07:02:19.866Z,100.00
2019-05-01T07:04:48.579Z,100.00
2019-05-01T07:07:24.974Z,100.00
2019-05-01T07:09:49.359Z,100.00
2019-05-01T07:12:24.049Z,100.00
2019-05-01T07:14:52.192Z,100.00
2019-05-01T07:17:21.371Z,100.00
2019-05-01T07:20:21.499Z,100.00
2019-05-01T07:22:50.218Z,100.00
2019-05-01T07:25:18.923Z,100.00
2019-05-01T07:27:47.586Z,100.00
2019-05-01T07:30:26.016Z,100.00
2019-05-01T07:32:54.680Z,100.00
2019-05-01T07:35:23.671Z,100.00
2019-05-01T07:37:52.330Z,100.00
2019-05-01T07:40:29.052Z,100.00
2019-05-01T07:42:55.738Z,100.00
2019-05-01T07:45:38.898Z,100.00
2019-05-01T07:48:07.777Z,100.00
2019-05-01T07:50:36.502Z,100.00
2019-05-01T07:53:05.151Z,100.00
2019-05-01T07:55:37.449Z,100.00
2019-05-01T07:58:10.253Z,100.00
2019-05-01T08:00:45.935Z,100.00
2019-05-01T08:03:14.664Z,100.00
2019-05-01T08:05:45.479Z,100.00
2019-05-01T08:08:13.765Z,100.00
2019-05-01T08:10:42.451Z,100.00
2019-05-01T08:13:11.103Z,100.00
2019-05-01T08:15:39.905Z,100.00
2019-05-01T08:18:15.387Z,100.00
2019-05-01T08:20:50.444Z,100.00
2019-05-01T08:23:16.999Z,100.00
2019-05-01T08:25:45.675Z,100.00
2019-05-01T08:28:20.347Z,100.00
2019-05-01T08:31:10.967Z,100.00
2019-05-01T08:33:54.286Z,100.00
2019-05-01T08:36:22.961Z,100.00
2019-05-01T08:38:51.889Z,100.00
2019-05-01T08:41:20.546Z,100.00
2019-05-01T08:43:54.185Z,100.00
2019-05-01T08:46:42.174Z,100.00
2019-05-01T08:49:15.516Z,100.00
2019-05-01T08:51:44.168Z,100.00
2019-05-01T08:54:12.896Z,100.00
2019-05-01T08:56:43.697Z,100.00
2019-05-01T08:59:12.084Z,100.00
2019-05-01T09:01:45.857Z,100.00
2019-05-01T09:04:13.338Z,97.78
2019-05-01T09:06:43.808Z,100.00
2019-05-01T09:09:13.976Z,97.45
2019-05-01T09:11:42.998Z,95.67
2019-05-01T09:14:11.649Z,93.07
2019-05-01T09:16:40.341Z,96.94
2019-05-01T09:19:08.996Z,87.32
2019-05-01T09:21:39.392Z,72.34
2019-05-01T09:24:09.384Z,65.89
2019-05-01T09:26:50.250Z,62.73
2019-05-01T09:29:22.623Z,57.81
2019-05-01T09:31:52.395Z,56.31
2019-05-01T09:34:21.201Z,57.52
2019-05-01T09:36:49.870Z,58.15
2019-05-01T09:39:18.783Z,55.33
2019-05-01T09:41:48.840Z,54.53
2019-05-01T09:44:17.666Z,52.22
2019-05-01T09:46:46.308Z,52.83
2019-05-01T09:49:18.281Z,56.15
2019-05-01T09:51:52.822Z,59.86
2019-05-01T09:54:30.614Z,62.37
2019-05-01T09:56:59.328Z,62.22
2019-05-01T09:59:27.971Z,64.27
2019-05-01T10:01:56.638Z,61.49
2019-05-01T10:04:30.033Z,58.44
2019-05-01T10:06:55.747Z,57.70
2019-05-01T10:09:26.759Z,58.51
2019-05-01T10:11:54.780Z,61.77
2019-05-01T10:14:23.526Z,57.32
2019-05-01T10:16:52.449Z,53.50
2019-05-01T10:19:21.150Z,47.47
2019-05-01T10:21:49.864Z,49.47
2019-05-01T10:24:18.859Z,45.81
2019-05-01T10:26:49.800Z,48.99
2019-05-01T10:29:40.995Z,45.54
2019-05-01T10:32:16.903Z,47.07
2019-05-01T10:35:14.307Z,56.24
2019-05-01T10:37:40.375Z,52.80
2019-05-01T10:40:09.079Z,58.50
2019-05-01T10:42:37.747Z,57.92
2019-05-01T10:45:06.416Z,59.76
2019-05-01T10:47:35.164Z,62.91
2019-05-01T10:50:03.987Z,67.54
2019-05-01T10:52:32.760Z,67.65
2019-05-01T10:55:01.515Z,69.30
2019-05-01T10:57:30.225Z,71.43
2019-05-01T10:59:58.991Z,71.58
2019-05-01T11:02:27.632Z,71.05
2019-05-01T11:04:56.343Z,74.95
2019-05-01T11:07:25.004Z,71.33
2019-05-01T11:09:53.652Z,67.65
2019-05-01T11:12:23.098Z,65.49
2019-05-01T11:14:51.748Z,62.95
2019-05-01T11:17:20.525Z,58.76
2019-05-01T11:19:49.206Z,57.75
2019-05-01T11:22:17.931Z,54.10
2019-05-01T11:24:46.893Z,51.36
2019-05-01T11:27:15.599Z,48.26
2019-05-01T11:29:44.251Z,47.33
2019-05-01T11:32:22.800Z,46.22
2019-05-01T11:35:22.728Z,45.96
2019-05-01T11:37:56.499Z,49.13
2019-05-01T11:40:31.511Z,52.09
2019-05-01T11:43:02.736Z,50.95
2019-05-01T11:45:32.920Z,54.42
2019-05-01T11:48:01.560Z,51.53
2019-05-01T11:50:30.525Z,51.10
2019-05-01T11:52:59.175Z,47.67
2019-05-01T11:55:27.818Z,47.00
2019-05-01T11:57:56.743Z,46.80
2019-05-01T12:00:25.763Z,42.99
2019-05-01T12:02:54.493Z,52.45
2019-05-01T12:05:23.155Z,46.09
2019-05-01T12:07:51.835Z,45.93
2019-05-01T12:10:20.481Z,45.66
2019-05-01T12:12:49.115Z,46.45
2019-05-01T12:15:17.945Z,45.55
2019-05-01T12:17:50.230Z,44.43
2019-05-01T12:20:19.630Z,47.04
2019-05-01T12:22:51.208Z,47.44
2019-05-01T12:25:18.710Z,47.79
2019-05-01T12:27:47.357Z,50.60
2019-05-01T12:30:16.950Z,49.38
2019-05-01T12:32:45.684Z,50.65
2019-05-01T12:35:14.516Z,51.20
2019-05-01T12:37:43.916Z,52.03
2019-05-01T12:40:14.360Z,51.04
2019-05-01T12:42:43.088Z,51.18
2019-05-01T12:45:13.492Z,50.09
2019-05-01T12:47:45.798Z,49.15
2019-05-01T12:50:14.528Z,50.63
2019-05-01T12:53:00.522Z,52.26
2019-05-01T12:55:49.392Z,52.05
2019-05-01T12:58:18.060Z,51.51
2019-05-01T13:00:49.169Z,51.49
2019-05-01T13:03:17.899Z,65.15
2019-05-01T13:05:46.611Z,70.57
2019-05-01T13:08:15.287Z,75.85
2019-05-01T13:10:43.927Z,62.10
2019-05-01T13:13:12.558Z,61.38
2019-05-01T13:15:41.204Z,54.42
2019-05-01T13:18:11.606Z,55.43
2019-05-01T13:20:40.324Z,53.36
2019-05-01T13:23:08.961Z,53.91
2019-05-01T13:25:37.665Z,52.78
2019-05-01T13:28:24.534Z,50.35
2019-05-01T13:31:00.299Z,51.85
2019-05-01T13:33:28.938Z,57.00
2019-05-01T13:35:57.576Z,55.53
2019-05-01T13:38:26.312Z,55.36
2019-05-01T13:40:54.942Z,48.30
2019-05-01T13:43:23.600Z,47.26
2019-05-01T13:45:52.274Z,47.96
2019-05-01T13:48:20.910Z,46.99
2019-05-01T13:50:49.555Z,45.23
2019-05-01T13:53:18.216Z,46.24
2019-05-01T13:55:46.867Z,47.91
2019-05-01T13:58:15.529Z,50.65
2019-05-01T14:00:44.360Z,50.37
2019-05-01T14:03:13.011Z,49.31
2019-05-01T14:05:42.042Z,50.13
2019-05-01T14:08:10.713Z,50.75
2019-05-01T14:10:39.415Z,52.70
2019-05-01T14:13:08.049Z,52.07
2019-05-01T14:15:36.704Z,55.50
2019-05-01T14:18:05.416Z,59.94
2019-05-01T14:20:41.855Z,60.70
2019-05-01T14:23:21.071Z,62.90
2019-05-01T14:26:05.348Z,59.92
2019-05-01T14:28:34.239Z,62.72
2019-05-01T14:31:02.881Z,59.63
2019-05-01T14:33:32.825Z,59.91
2019-05-01T14:36:01.546Z,42.66
2019-05-01T14:38:31.256Z,38.26
2019-05-01T14:40:59.998Z,37.69
2019-05-01T14:43:29.011Z,41.76
2019-05-01T14:45:57.630Z,42.73
2019-05-01T14:48:26.614Z,52.50
2019-05-01T14:50:55.256Z,47.57
2019-05-01T14:53:23.894Z,48.34
2019-05-01T14:55:52.549Z,46.98
2019-05-01T14:58:21.239Z,47.69
2019-05-01T15:00:49.959Z,46.30
2019-05-01T15:03:18.895Z,45.24
2019-05-01T15:05:47.543Z,43.06
2019-05-01T15:08:16.201Z,43.54
2019-05-01T15:10:44.928Z,44.06
2019-05-01T15:13:24.071Z,43.43
2019-05-01T15:16:00.919Z,42.26
2019-05-01T15:18:48.629Z,39.47
2019-05-01T15:21:17.272Z,42.76
2019-05-01T15:23:53.431Z,42.85
2019-05-01T15:26:16.234Z,43.93
2019-05-01T15:28:45.230Z,41.53
2019-05-01T15:31:14.039Z,40.70
2019-05-01T15:33:42.680Z,40.94
2019-05-01T15:36:11.341Z,37.94
2019-05-01T15:38:40.354Z,37.89
2019-05-01T15:41:26.878Z,39.51
2019-05-01T15:44:14.588Z,36.84
2019-05-01T15:46:43.248Z,37.39
2019-05-01T15:49:11.868Z,37.38
2019-05-01T15:51:40.619Z,36.27
2019-05-01T15:54:09.268Z,36.91
2019-05-01T15:56:38.957Z,36.93
2019-05-01T15:59:07.604Z,33.97
2019-05-01T16:01:36.364Z,37.59
2019-05-01T16:04:05.977Z,39.24
2019-05-01T16:06:34.620Z,39.90
2019-05-01T16:09:04.692Z,39.84
2019-05-01T16:12:11.318Z,40.65
2019-05-01T16:14:41.181Z,41.77
2019-05-01T16:17:09.822Z,42.48
2019-05-01T16:19:38.463Z,40.99
2019-05-01T16:22:07.196Z,40.05
2019-05-01T16:24:35.932Z,36.27
2019-05-01T16:27:04.940Z,34.51
2019-05-01T16:29:33.578Z,36.28
2019-05-01T16:32:02.282Z,36.70
2019-05-01T16:34:30.957Z,36.99
2019-05-01T16:36:59.819Z,39.36
2019-05-01T16:39:50.456Z,41.32
2019-05-01T16:42:31.616Z,45.15
2019-05-01T16:45:00.306Z,43.35
2019-05-01T16:47:28.977Z,41.42
2019-05-01T16:49:57.704Z,41.92
2019-05-01T16:52:29.550Z,42.97
2019-05-01T16:54:59.507Z,47.82
2019-05-01T16:57:28.768Z,52.36
2019-05-01T16:59:57.668Z,53.22
2019-05-01T17:02:46.753Z,58.02
2019-05-01T17:05:43.939Z,58.60
2019-05-01T17:08:36.264Z,60.95
2019-05-01T17:11:00.900Z,65.20
2019-05-01T17:13:29.693Z,68.60
2019-05-01T17:15:58.499Z,67.42
2019-05-01T17:18:27.608Z,67.56
2019-05-01T17:20:56.243Z,71.85
2019-05-01T17:23:24.963Z,74.72
2019-05-01T17:25:53.595Z,79.37
2019-05-01T17:28:22.323Z,82.69
2019-05-01T17:31:01.012Z,85.39
2019-05-01T17:33:29.971Z,86.23
2019-05-01T17:35:58.603Z,88.14
2019-05-01T17:38:27.542Z,91.09
2019-05-01T17:40:56.572Z,97.71
2019-05-01T17:43:25.284Z,100.00
2019-05-01T17:45:53.998Z,100.00
2019-05-01T17:48:22.708Z,99.32
2019-05-01T17:50:55.053Z,100.00
2019-05-01T17:53:21.764Z,100.00
2019-05-01T17:55:50.482Z,100.00
2019-05-01T17:58:19.142Z,100.00
2019-05-01T18:01:13.874Z,100.00
2019-05-01T18:03:58.376Z,100.00
2019-05-01T18:06:29.677Z,100.00
2019-05-01T18:09:03.146Z,100.00
2019-05-01T18:11:28.659Z,100.00
2019-05-01T18:13:57.383Z,100.00
2019-05-01T18:16:26.968Z,100.00
2019-05-01T18:18:55.610Z,100.00
2019-05-01T18:21:24.344Z,100.00
2019-05-01T18:24:12.209Z,100.00
2019-05-01T18:27:14.712Z,100.00
2019-05-01T18:30:05.232Z,100.00
2019-05-01T18:32:41.632Z,100.00
2019-05-01T18:35:14.259Z,100.00
2019-05-01T18:37:50.223Z,100.00
2019-05-01T18:40:23.498Z,100.00
2019-05-01T18:42:52.149Z,100.00
2019-05-01T18:45:49.043Z,100.00
2019-05-01T18:48:17.870Z,100.00
2019-05-01T18:50:49.417Z,100.00
2019-05-01T18:53:17.022Z,100.00
2019-05-01T18:55:45.749Z,100.00
2019-05-01T18:58:14.664Z,100.00
2019-05-01T19:00:44.019Z,100.00
2019-05-01T19:03:12.784Z,100.00
2019-05-01T19:05:43.105Z,100.00
2019-05-01T19:08:12.247Z,100.00
2019-05-01T19:10:41.292Z,100.00
2019-05-01T19:13:10.497Z,100.00
2019-05-01T19:15:39.513Z,100.00
2019-05-01T19:18:08.159Z,100.00
2019-05-01T19:20:36.806Z,100.00
2019-05-01T19:23:06.068Z,100.00
2019-05-01T19:25:34.712Z,100.00
2019-05-01T19:28:04.368Z,100.00
2019-05-01T19:30:33.312Z,100.00
2019-05-01T19:33:02.281Z,100.00
2019-05-01T19:35:34.121Z,100.00
2019-05-01T19:38:01.310Z,100.00
2019-05-01T19:40:32.555Z,100.00
2019-05-01T19:43:00.400Z,100.00
2019-05-01T19:45:29.135Z,100.00
2019-05-01T19:47:58.075Z,100.00
2019-05-01T19:50:27.160Z,100.00
2019-05-01T19:52:55.917Z,100.00
2019-05-01T19:55:24.541Z,100.00
2019-05-01T19:57:55.040Z,100.00
2019-05-01T20:00:43.455Z,100.00
2019-05-01T20:03:12.307Z,100.00
2019-05-01T20:05:41.776Z,100.00
2019-05-01T20:08:11.169Z,100.00
2019-05-01T20:10:39.983Z,100.00
2019-05-01T20:13:12.282Z,100.00
2019-05-01T20:15:39.066Z,100.00
2019-05-01T20:18:07.720Z,100.00
2019-05-01T20:20:36.372Z,100.00
2019-05-01T20:23:05.091Z,100.00
2019-05-01T20:25:33.738Z,100.00
2019-05-01T20:28:02.478Z,100.00
2019-05-01T20:30:31.151Z,100.00
2019-05-01T20:33:02.266Z,100.00
2019-05-01T20:35:30.424Z,100.00
2019-05-01T20:37:59.163Z,100.00
2019-05-01T20:40:27.959Z,100.00
2019-05-01T20:43:01.035Z,100.00
2019-05-01T20:45:28.059Z,100.00
2019-05-01T20:47:57.569Z,100.00
2019-05-01T20:50:26.215Z,100.00
2019-05-01T20:52:54.947Z,100.00
2019-05-01T20:55:23.700Z,100.00
2019-05-01T20:57:54.087Z,100.00
2019-05-01T21:00:24.831Z,100.00
2019-05-01T21:02:53.758Z,100.00
2019-05-01T21:05:33.832Z,100.00
2019-05-01T21:08:29.055Z,100.00
2019-05-01T21:11:06.028Z,100.00
2019-05-01T21:13:34.636Z,100.00
2019-05-01T21:16:03.953Z,100.00
2019-05-01T21:18:33.058Z,100.00
2019-05-01T21:21:03.482Z,100.00
2019-05-01T21:23:33.444Z,100.00
2019-05-01T21:26:03.855Z,100.00
2019-05-01T21:28:34.038Z,100.00
2019-05-01T21:31:03.821Z,100.00
2019-05-01T21:33:33.966Z,100.00
2019-05-01T21:36:04.855Z,100.00
2019-05-01T21:38:33.341Z,100.00
2019-05-01T21:41:02.985Z,100.00
2019-05-01T21:43:33.150Z,100.00
2019-05-01T21:46:03.882Z,100.00
2019-05-01T21:48:33.412Z,100.00
2019-05-01T21:51:06.106Z,100.00
2019-05-01T21:53:32.957Z,100.00
2019-05-01T21:56:02.228Z,100.00
2019-05-01T21:58:35.320Z,100.00
2019-05-01T22:01:02.775Z,100.00
2019-05-01T22:03:31.687Z,100.00
2019-05-01T22:06:00.343Z,100.00
2019-05-01T22:08:28.992Z,100.00
2019-05-01T22:11:01.813Z,100.00
2019-05-01T22:13:28.323Z,100.00
2019-05-01T22:16:08.106Z,100.00
2019-05-01T22:18:42.645Z,100.00
2019-05-01T22:21:46.914Z,100.00
2019-05-01T22:24:40.698Z,100.00
2019-05-01T22:27:18.252Z,100.00
2019-05-01T22:29:52.758Z,100.00
2019-05-01T22:32:27.738Z,100.00
2019-05-01T22:35:07.178Z,100.00
2019-05-01T22:37:35.828Z,100.00
2019-05-01T22:40:08.077Z,100.00
2019-05-01T22:42:36.776Z,100.00
2019-05-01T22:45:05.977Z,100.00
2019-05-01T22:47:34.635Z,100.00
2019-05-01T22:50:03.448Z,100.00
2019-05-01T22:52:32.243Z,100.00
2019-05-01T22:55:01.287Z,100.00
2019-05-01T22:57:29.919Z,100.00
2019-05-01T22:59:58.693Z,100.00
2019-05-01T23:02:34.351Z,100.00
2019-05-01T23:05:02.989Z,100.00
2019-05-01T23:07:31.683Z,100.00
2019-05-01T23:10:03.202Z,100.00
2019-05-01T23:12:31.901Z,100.00
2019-05-01T23:15:00.821Z,100.00
2019-05-01T23:17:39.522Z,100.00
2019-05-01T23:20:08.074Z,100.00
2019-05-01T23:22:36.706Z,100.00
2019-05-01T23:25:06.584Z,100.00
2019-05-01T23:27:35.298Z,100.00
2019-05-01T23:30:04.626Z,100.00
2019-05-01T23:32:33.607Z,100.00
2019-05-01T23:35:02.350Z,100.00
2019-05-01T23:37:30.975Z,100.00
2019-05-01T23:39:59.684Z,100.00
2019-05-01T23:42:28.598Z,100.00
2019-05-01T23:44:57.260Z,100.00
2019-05-01T23:47:25.888Z,100.00
2019-05-01T23:49:54.831Z,100.00
2019-05-01T23:52:23.543Z,100.00
2019-05-01T23:54:52.183Z,100.00
2019-05-01T23:57:21.539Z,100.00
2019-05-01T23:59:50.191Z,100.00
